Time;durP1;ratioP1;P1;durP2;ratioP2;P2;SDS_P1;SDS_P2;PMS_P1;PMS_P2;Temp;Humidity;BMP_temperature;BMP_pressure;BME280_temperature;BME280_humidity;BME280_pressure;Samples;Min_cycle;Max_cycle;Signal;HPM_P1;HPM_P2
2023/09/03 00:01:45;;;;;;;11.57;8.07;;;16.40;99.90;;;;;;4947726;28;20023;-83
2023/09/03 00:04:11;;;;;;;12.82;8.38;;;16.40;99.90;;;;;;4941786;28;20039;-83
2023/09/03 00:06:37;;;;;;;10.30;8.65;;;16.40;99.90;;;;;;4925029;29;20389;-83
2023/09/03 00:09:06;;;;;;;10.43;8.07;;;16.40;99.90;;;;;;4958960;28;20027;-83
2023/09/03 00:11:32;;;;;;;9.40;8.38;;;16.40;99.90;;;;;;4962831;28;20022;-82
2023/09/03 00:13:58;;;;;;;11.00;8.15;;;16.40;99.90;;;;;;4937631;29;20038;-82
2023/09/03 00:16:25;;;;;;;9.95;7.65;;;16.40;99.90;;;;;;4954705;28;20031;-83
2023/09/03 00:18:51;;;;;;;8.75;7.88;;;16.40;99.90;;;;;;4953638;28;20122;-82
2023/09/03 00:21:17;;;;;;;10.23;7.80;;;16.40;99.90;;;;;;4954983;28;20022;-84
2023/09/03 00:23:43;;;;;;;9.02;8.13;;;16.40;99.90;;;;;;4937677;29;20054;-82
2023/09/03 00:26:17;;;;;;;13.60;8.55;;;16.50;99.90;;;;;;4937764;29;20055;-83
2023/09/03 00:28:43;;;;;;;14.40;8.43;;;16.40;99.90;;;;;;4937770;29;20027;-82
2023/09/03 00:31:09;;;;;;;13.07;9.23;;;16.50;99.90;;;;;;4955476;28;20046;-82
2023/09/03 00:33:36;;;;;;;10.60;8.48;;;16.50;99.90;;;;;;4939668;29;20082;-82
2023/09/03 00:36:04;;;;;;;11.57;9.30;;;16.50;99.90;;;;;;4956126;28;20110;-83
2023/09/03 00:38:30;;;;;;;11.98;10.23;;;16.40;99.90;;;;;;4955142;28;20299;-83
2023/09/03 00:40:56;;;;;;;11.95;9.98;;;16.40;99.90;;;;;;4954637;28;20373;-83
2023/09/03 00:43:22;;;;;;;12.10;10.73;;;16.40;99.90;;;;;;4955669;28;20082;-82
2023/09/03 00:45:49;;;;;;;18.38;11.30;;;16.30;99.90;;;;;;4960130;28;20070;-83
2023/09/03 00:48:20;;;;;;;;;;;16.20;99.90;;;;;;4931057;29;20058;-83
2023/09/03 00:50:47;;;;;;;15.75;10.82;;;16.10;99.90;;;;;;4953966;29;19906;-84
2023/09/03 00:53:15;;;;;;;12.23;10.90;;;16.10;99.90;;;;;;4955132;28;20054;-82
2023/09/03 00:55:41;;;;;;;14.07;10.38;;;16.00;99.90;;;;;;4938831;29;20146;-82
2023/09/03 00:58:08;;;;;;;13.55;10.75;;;16.00;99.90;;;;;;4959314;28;20039;-84
2023/09/03 01:00:35;;;;;;;11.77;9.60;;;16.00;99.90;;;;;;4973681;29;20037;-83
2023/09/03 01:03:02;;;;;;;13.50;9.15;;;16.00;99.90;;;;;;4969703;28;20051;-81
2023/09/03 01:05:28;;;;;;;10.63;9.50;;;16.00;99.90;;;;;;4964441;28;20023;-82
2023/09/03 01:07:55;;;;;;;10.35;9.32;;;16.10;99.90;;;;;;4968843;28;20062;-81
2023/09/03 01:10:44;;;;;;;13.18;10.43;;;16.10;99.90;;;;;;4965654;28;20043;-82
2023/09/03 01:13:32;;;;;;;11.50;10.02;;;16.20;99.90;;;;;;4958681;28;20039;-83
2023/09/03 01:16:02;;;;;;;11.60;10.38;;;16.20;99.90;;;;;;4945829;29;20051;-81
2023/09/03 01:18:30;;;;;;;12.90;9.45;;;16.20;99.90;;;;;;4961707;28;20106;-84
2023/09/03 01:21:05;;;;;;;12.30;10.15;;;16.20;99.90;;;;;;4938603;28;20389;-82
2023/09/03 01:24:01;;;;;;;10.95;9.57;;;16.20;99.90;;;;;;4956785;28;20019;-83
2023/09/03 01:26:55;;;;;;;14.20;10.80;;;16.20;99.90;;;;;;4951820;28;20075;-81
2023/09/03 01:29:22;;;;;;;11.50;9.93;;;16.10;99.90;;;;;;4959949;28;20039;-82
2023/09/03 01:31:48;;;;;;;9.60;8.55;;;16.10;99.90;;;;;;4959384;28;20103;-82
2023/09/03 01:34:16;;;;;;;12.30;11.00;;;16.10;99.90;;;;;;4959832;28;20023;-81
2023/09/03 01:36:43;;;;;;;;;;;16.00;99.90;;;;;;4981505;28;20297;-81
2023/09/03 01:39:09;;;;;;;16.02;10.30;;;16.00;99.90;;;;;;4942427;29;20273;-82
2023/09/03 01:41:37;;;;;;;11.27;10.13;;;15.90;99.90;;;;;;4954210;28;20060;-82
2023/09/03 01:44:05;;;;;;;10.73;9.63;;;15.90;99.90;;;;;;4939657;29;20502;-83
2023/09/03 01:46:51;;;;;;;11.55;10.35;;;15.80;99.90;;;;;;4966376;28;20007;-82
2023/09/03 01:49:34;;;;;;;17.63;10.93;;;15.80;99.90;;;;;;4960708;28;20433;-83
2023/09/03 01:52:14;;;;;;;14.80;10.20;;;15.70;99.90;;;;;;4937138;29;20015;-82
2023/09/03 01:54:47;;;;;;;11.10;9.95;;;15.70;99.90;;;;;;4954594;28;20033;-82
2023/09/03 01:57:28;;;;;;;12.18;10.88;;;15.60;99.90;;;;;;4936818;29;20477;-83
2023/09/03 02:00:00;;;;;;;12.43;10.82;;;15.50;99.90;;;;;;4954096;28;20074;-82
2023/09/03 02:02:28;;;;;;;13.02;11.52;;;15.50;99.90;;;;;;4953882;28;20445;-82
2023/09/03 02:04:54;;;;;;;14.73;10.60;;;15.40;99.90;;;;;;4953850;28;20066;-83
2023/09/03 02:07:20;;;;;;;13.32;11.93;;;15.40;99.90;;;;;;4953877;28;20031;-82
2023/09/03 02:09:46;;;;;;;14.23;11.57;;;15.40;99.90;;;;;;4938804;29;20046;-82
2023/09/03 02:12:12;;;;;;;13.32;10.85;;;15.30;99.90;;;;;;4964870;28;20032;-83
2023/09/03 02:14:38;;;;;;;15.07;11.38;;;15.30;99.90;;;;;;4940543;29;20027;-83
2023/09/03 02:17:04;;;;;;;11.48;9.93;;;15.30;99.90;;;;;;4954283;28;20119;-82
2023/09/03 02:19:30;;;;;;;13.30;11.73;;;15.30;99.90;;;;;;4953810;28;20035;-82
2023/09/03 02:21:56;;;;;;;14.30;12.15;;;15.30;99.90;;;;;;4954091;28;20019;-83
2023/09/03 02:24:21;;;;;;;11.65;10.45;;;15.30;99.90;;;;;;4954153;28;20151;-83
2023/09/03 02:26:47;;;;;;;16.95;11.80;;;15.20;99.90;;;;;;4936768;28;20031;-83
2023/09/03 02:29:14;;;;;;;11.80;10.60;;;15.20;99.90;;;;;;4957266;28;20069;-83
2023/09/03 02:31:40;;;;;;;13.70;11.37;;;15.20;99.90;;;;;;4957172;28;20016;-82
2023/09/03 02:34:07;;;;;;;13.55;10.40;;;15.20;99.90;;;;;;4939763;28;20724;-82
2023/09/03 02:36:34;;;;;;;14.65;10.93;;;15.20;99.90;;;;;;4957490;28;20019;-82
2023/09/03 02:39:06;;;;;;;14.80;10.43;;;15.10;99.90;;;;;;4953274;28;20042;-82
2023/09/03 02:41:32;;;;;;;11.45;10.00;;;15.10;99.90;;;;;;4944553;28;20110;-82
2023/09/03 02:44:00;;;;;;;13.40;10.38;;;15.10;99.90;;;;;;4940013;29;20027;-83
2023/09/03 02:46:26;;;;;;;12.63;11.32;;;15.10;99.90;;;;;;4956556;28;20019;-83
2023/09/03 02:48:52;;;;;;;17.58;12.00;;;15.10;99.90;;;;;;4958532;28;20206;-82
2023/09/03 02:51:19;;;;;;;12.95;11.68;;;15.00;99.90;;;;;;4970870;28;20027;-82
2023/09/03 02:53:47;;;;;;;19.05;11.98;;;15.00;99.90;;;;;;4951383;29;20392;-81
2023/09/03 02:56:13;;;;;;;14.05;10.80;;;15.00;99.90;;;;;;4958841;28;20023;-82
2023/09/03 02:58:40;;;;;;;11.90;10.63;;;15.00;99.90;;;;;;4956323;28;20051;-84
2023/09/03 03:01:11;;;;;;;11.75;10.63;;;15.00;99.90;;;;;;4956493;28;20102;-81
2023/09/03 03:03:37;;;;;;;14.95;10.52;;;15.00;99.90;;;;;;4952996;28;20055;-83
2023/09/03 03:06:03;;;;;;;14.65;11.32;;;15.00;99.90;;;;;;4939099;29;20421;-83
2023/09/03 03:08:28;;;;;;;10.32;9.23;;;15.00;99.90;;;;;;4938982;28;20031;-82
2023/09/03 03:11:12;;;;;;;14.18;11.18;;;15.00;99.90;;;;;;4938883;29;20031;-82
2023/09/03 03:13:42;;;;;;;15.65;12.20;;;15.10;99.90;;;;;;4970604;28;20062;-82
2023/09/03 03:16:09;;;;;;;14.45;12.35;;;15.00;99.90;;;;;;4951149;29;20019;-83
2023/09/03 03:18:37;;;;;;;14.75;11.75;;;15.00;99.90;;;;;;4969755;28;20039;-83
2023/09/03 03:21:22;;;;;;;14.07;11.73;;;15.00;99.90;;;;;;4954903;28;20046;-82
2023/09/03 03:23:50;;;;;;;12.48;11.00;;;15.00;99.90;;;;;;4960094;28;20023;-82
2023/09/03 03:26:17;;;;;;;14.35;10.57;;;15.00;99.90;;;;;;4956088;28;20023;-83
2023/09/03 03:28:43;;;;;;;13.38;10.50;;;15.10;99.90;;;;;;4958523;28;20035;-82
2023/09/03 03:31:12;;;;;;;11.20;9.90;;;15.10;99.90;;;;;;4956718;28;20580;-84
2023/09/03 03:33:39;;;;;;;10.75;9.65;;;15.20;99.90;;;;;;4938403;29;20556;-85
2023/09/03 03:36:06;;;;;;;11.27;10.05;;;15.20;99.90;;;;;;4914960;29;20111;-83
2023/09/03 03:38:32;;;;;;;12.15;9.38;;;15.30;99.90;;;;;;4915269;29;20071;-83
2023/09/03 03:41:10;;;;;;;10.15;9.10;;;15.40;99.90;;;;;;4915134;29;20036;-82
2023/09/03 03:43:37;;;;;;;11.93;10.43;;;15.40;99.90;;;;;;4915838;29;20343;-83
2023/09/03 03:46:05;;;;;;;11.68;10.13;;;15.50;99.90;;;;;;4915957;29;20036;-83
2023/09/03 03:48:32;;;;;;;10.43;9.30;;;15.50;99.90;;;;;;4915922;29;20048;-83
2023/09/03 03:50:58;;;;;;;11.93;10.02;;;15.50;99.90;;;;;;4915212;29;20048;-82
2023/09/03 03:53:24;;;;;;;12.48;10.50;;;15.50;99.90;;;;;;4915642;29;20481;-83
2023/09/03 03:55:57;;;;;;;16.65;10.70;;;15.50;99.90;;;;;;4917564;29;20032;-82
2023/09/03 03:58:23;;;;;;;11.75;9.23;;;15.50;99.90;;;;;;4900865;29;20044;-82
2023/09/03 04:00:49;;;;;;;13.77;9.82;;;15.60;99.90;;;;;;4919718;29;20413;-82
2023/09/03 04:03:15;;;;;;;12.77;8.65;;;15.70;99.90;;;;;;4916861;29;20032;-83
2023/09/03 04:05:40;;;;;;;12.95;10.32;;;15.70;99.90;;;;;;4915144;29;20103;-82
2023/09/03 04:08:06;;;;;;;9.48;8.52;;;15.80;99.90;;;;;;4925833;29;20056;-82
2023/09/03 04:10:32;;;;;;;14.23;8.73;;;15.90;99.90;;;;;;4917480;29;20040;-83
2023/09/03 04:12:58;;;;;;;12.45;9.60;;;15.90;99.90;;;;;;4926143;29;20482;-82
2023/09/03 04:15:23;;;;;;;11.13;9.68;;;16.10;99.90;;;;;;4954761;28;20035;-81
2023/09/03 04:17:49;;;;;;;12.07;10.88;;;16.20;99.90;;;;;;4955319;28;20425;-82
2023/09/03 04:20:15;;;;;;;12.18;9.55;;;16.30;99.90;;;;;;4955780;28;20027;-83
2023/09/03 04:22:41;;;;;;;14.38;10.48;;;16.40;99.90;;;;;;4954588;28;20023;-82
2023/09/03 04:25:07;;;;;;;11.27;9.68;;;16.50;99.90;;;;;;4937378;29;20070;-82
2023/09/03 04:27:33;;;;;;;15.43;9.82;;;16.70;99.90;;;;;;4954605;28;20028;-83
2023/09/03 04:29:59;;;;;;;10.75;9.43;;;16.70;99.90;;;;;;4937489;29;20396;-83
2023/09/03 04:32:25;;;;;;;13.27;8.85;;;16.80;99.90;;;;;;4953184;28;20034;-84
2023/09/03 04:34:51;;;;;;;11.02;8.93;;;16.90;99.90;;;;;;4925571;29;20077;-83
2023/09/03 04:37:17;;;;;;;11.70;9.63;;;16.90;99.90;;;;;;4954868;28;20031;-83
2023/09/03 04:39:43;;;;;;;14.70;9.73;;;17.00;99.90;;;;;;4958019;28;20027;-82
2023/09/03 04:42:09;;;;;;;12.20;9.57;;;17.00;99.90;;;;;;4975848;28;20029;-81
2023/09/03 04:44:37;;;;;;;10.82;9.55;;;17.10;99.90;;;;;;4957566;28;20034;-82
2023/09/03 04:47:05;;;;;;;17.05;9.70;;;17.20;99.90;;;;;;4944256;28;20413;-82
2023/09/03 04:49:32;;;;;;;10.88;9.68;;;17.30;99.90;;;;;;4953241;28;20030;-84
2023/09/03 04:51:58;;;;;;;14.07;9.55;;;17.40;99.90;;;;;;4966288;28;20019;-84
2023/09/03 04:54:24;;;;;;;9.50;8.50;;;17.40;99.90;;;;;;4959216;28;20039;-82
2023/09/03 04:56:50;;;;;;;11.65;10.50;;;17.40;99.90;;;;;;4963178;28;20034;-83
2023/09/03 04:59:15;;;;;;;12.10;9.70;;;17.30;99.90;;;;;;4957835;28;20484;-83
2023/09/03 05:01:43;;;;;;;10.93;9.52;;;17.30;99.90;;;;;;4954089;28;20074;-82
2023/09/03 05:04:09;;;;;;;;;;;17.20;99.90;;;;;;4937910;29;20478;-82
2023/09/03 05:06:37;;;;;;;14.10;10.48;;;17.20;99.90;;;;;;4941982;28;19910;-82
2023/09/03 05:09:03;;;;;;;11.05;9.90;;;17.20;99.90;;;;;;4935897;29;20027;-83
2023/09/03 05:11:29;;;;;;;12.20;9.70;;;17.20;99.90;;;;;;4964864;28;20396;-82
2023/09/03 05:13:55;;;;;;;11.63;9.75;;;17.40;99.90;;;;;;4939111;28;20034;-83
2023/09/03 05:16:23;;;;;;;15.35;10.05;;;17.50;99.90;;;;;;4954047;28;20023;-82
2023/09/03 05:18:51;;;;;;;11.30;9.85;;;17.70;99.90;;;;;;4936335;28;20035;-83
2023/09/03 05:21:17;;;;;;;15.10;9.75;;;18.10;99.90;;;;;;4936855;29;20102;-84
2023/09/03 05:23:43;;;;;;;10.68;9.63;;;18.40;99.10;;;;;;4954513;28;20527;-82
2023/09/03 05:26:09;;;;;;;10.52;9.50;;;18.70;98.30;;;;;;4954324;28;20016;-81
2023/09/03 05:28:35;;;;;;;12.32;9.45;;;18.80;97.70;;;;;;4957696;28;20063;-82
2023/09/03 05:31:00;;;;;;;12.95;9.48;;;18.90;97.60;;;;;;4965656;28;20089;-82
2023/09/03 05:33:26;;;;;;;9.95;9.05;;;18.90;97.10;;;;;;4967618;28;20016;-85
2023/09/03 05:35:52;;;;;;;8.25;7.45;;;19.00;97.10;;;;;;4962340;28;20027;-82
2023/09/03 05:38:21;;;;;;;11.35;9.93;;;19.10;96.90;;;;;;4937512;29;20058;-81
2023/09/03 05:40:46;;;;;;;10.32;8.50;;;19.10;96.50;;;;;;4955014;28;20087;-82
2023/09/03 05:43:13;;;;;;;10.50;9.38;;;19.20;96.50;;;;;;4968410;28;20036;-83
2023/09/03 05:45:44;;;;;;;12.45;10.15;;;19.20;95.90;;;;;;4956293;28;20070;-83
2023/09/03 05:48:10;;;;;;;10.13;9.10;;;19.10;95.60;;;;;;4959599;28;20039;-84
2023/09/03 05:50:36;;;;;;;9.25;8.25;;;19.10;95.50;;;;;;4957940;28;20027;-84
2023/09/03 05:53:02;;;;;;;13.63;8.55;;;19.10;95.40;;;;;;4950746;28;20020;-83
2023/09/03 05:55:27;;;;;;;10.85;8.38;;;19.20;94.90;;;;;;4944115;28;20031;-83
2023/09/03 05:57:53;;;;;;;8.65;7.05;;;19.50;94.70;;;;;;4953948;28;20039;-82
2023/09/03 06:00:19;;;;;;;10.77;7.85;;;19.90;94.00;;;;;;4936556;29;20023;-82
2023/09/03 06:02:45;;;;;;;10.25;7.55;;;20.20;92.90;;;;;;4955407;28;20027;-84
2023/09/03 06:05:14;;;;;;;8.27;7.25;;;20.30;92.40;;;;;;4957192;28;20417;-82
2023/09/03 06:07:40;;;;;;;9.65;8.65;;;20.50;91.80;;;;;;4957639;28;20046;-84
2023/09/03 06:10:08;;;;;;;8.95;8.02;;;20.60;91.50;;;;;;4939926;29;20019;-83
2023/09/03 06:12:33;;;;;;;11.15;8.30;;;20.70;91.20;;;;;;4957476;28;20035;-84
2023/09/03 06:14:59;;;;;;;15.23;11.25;;;20.90;90.90;;;;;;4951638;28;20511;-82
2023/09/03 06:17:25;;;;;;;10.35;8.38;;;21.00;90.60;;;;;;4972902;28;20481;-82
2023/09/03 06:19:51;;;;;;;9.43;6.88;;;21.20;90.50;;;;;;4957623;28;20437;-83
2023/09/03 06:22:17;;;;;;;12.57;7.03;;;21.50;88.70;;;;;;4958184;28;20024;-84
2023/09/03 06:24:43;;;;;;;7.05;6.35;;;21.70;88.40;;;;;;4941422;29;20210;-82
2023/09/03 06:27:08;;;;;;;13.05;8.05;;;22.10;87.10;;;;;;4957970;28;20035;-83
2023/09/03 06:29:34;;;;;;;8.65;5.88;;;22.60;84.30;;;;;;4960674;28;20023;-83
2023/09/03 06:32:00;;;;;;;5.72;4.60;;;23.00;81.30;;;;;;4973950;28;20478;-81
2023/09/03 06:34:26;;;;;;;9.27;7.78;;;23.30;79.60;;;;;;4962019;28;20469;-82
2023/09/03 06:36:52;;;;;;;9.63;5.25;;;23.60;77.80;;;;;;4957308;28;20023;-84
2023/09/03 06:39:18;;;;;;;8.18;5.25;;;23.50;76.50;;;;;;4939681;28;20032;-85
2023/09/03 06:41:44;;;;;;;13.68;6.00;;;23.40;75.90;;;;;;4939530;29;20035;-84
2023/09/03 06:44:10;;;;;;;10.88;5.55;;;23.30;76.40;;;;;;4942991;28;20107;-83
2023/09/03 06:46:35;;;;;;;8.57;5.47;;;23.20;76.70;;;;;;4956569;28;20078;-85
2023/09/03 06:49:01;;;;;;;11.65;6.20;;;23.10;76.80;;;;;;4956791;28;20035;-83
2023/09/03 06:51:27;;;;;;;8.65;5.60;;;22.80;77.10;;;;;;4956641;28;20162;-85
2023/09/03 06:53:53;;;;;;;10.23;5.80;;;22.50;78.00;;;;;;4939392;29;20027;-84
2023/09/03 06:56:19;;;;;;;11.00;6.60;;;22.20;79.00;;;;;;4956448;28;20186;-83
2023/09/03 06:58:44;;;;;;;9.13;6.20;;;22.00;79.30;;;;;;4939124;29;20567;-83
2023/09/03 07:01:10;;;;;;;17.77;6.32;;;21.70;79.70;;;;;;4939129;28;20031;-84
2023/09/03 07:03:36;;;;;;;14.73;7.10;;;21.50;80.30;;;;;;4956461;28;20027;-83
2023/09/03 07:06:02;;;;;;;12.45;8.45;;;21.40;81.30;;;;;;4941186;29;20469;-83
2023/09/03 07:08:29;;;;;;;9.15;7.05;;;21.30;81.20;;;;;;4939749;28;20032;-84
2023/09/03 07:11:00;;;;;;;13.20;7.20;;;21.30;81.70;;;;;;4956437;28;20022;-82
2023/09/03 07:13:25;;;;;;;11.55;6.60;;;21.30;81.90;;;;;;4956069;28;20019;-83
2023/09/03 07:15:51;;;;;;;11.50;7.30;;;21.30;82.60;;;;;;4955956;28;20029;-82
2023/09/03 07:18:17;;;;;;;17.33;9.20;;;21.40;82.00;;;;;;4955789;28;20507;-83
2023/09/03 07:20:43;;;;;;;11.05;6.63;;;21.60;82.30;;;;;;4956331;28;20067;-83
2023/09/03 07:23:08;;;;;;;13.20;7.60;;;21.90;82.70;;;;;;4938837;29;20509;-83
2023/09/03 07:25:35;;;;;;;9.23;6.00;;;22.10;81.20;;;;;;4938957;28;20027;-82
2023/09/03 07:28:02;;;;;;;8.90;6.32;;;22.50;80.90;;;;;;4956278;28;20050;-84
2023/09/03 07:30:29;;;;;;;9.95;6.78;;;23.40;78.30;;;;;;4956104;28;20031;-84
2023/09/03 07:32:56;;;;;;;7.70;5.20;;;23.80;74.60;;;;;;4939859;29;20019;-83
2023/09/03 07:35:21;;;;;;;7.63;5.18;;;23.80;73.70;;;;;;4941428;29;20126;-83
2023/09/03 07:37:47;;;;;;;6.72;5.38;;;23.80;73.10;;;;;;4957777;28;20493;-85
2023/09/03 07:40:13;;;;;;;7.47;5.18;;;24.20;73.40;;;;;;4956365;28;20732;-83
2023/09/03 07:42:39;;;;;;;8.75;5.13;;;24.90;71.20;;;;;;4955899;28;20031;-85
2023/09/03 07:45:05;;;;;;;10.77;5.40;;;25.40;68.60;;;;;;4938296;29;20027;-84
2023/09/03 07:47:31;;;;;;;9.75;5.72;;;25.60;67.70;;;;;;4938484;29;20500;-82
2023/09/03 07:49:57;;;;;;;11.07;5.40;;;26.10;66.40;;;;;;4938407;29;20027;-81
2023/09/03 07:52:23;;;;;;;8.02;4.75;;;26.20;65.00;;;;;;4955577;28;20412;-83
2023/09/03 07:54:49;;;;;;;8.95;4.30;;;26.20;64.80;;;;;;4941786;28;20019;-82
2023/09/03 07:57:15;;;;;;;12.02;9.20;;;26.30;66.10;;;;;;4947504;29;20031;-83
2023/09/03 07:59:41;;;;;;;8.15;6.32;;;26.90;65.30;;;;;;4955153;28;20484;-83
2023/09/03 08:02:07;;;;;;;8.35;5.57;;;27.40;62.70;;;;;;4937791;29;20027;-82
2023/09/03 08:04:32;;;;;;;11.60;5.05;;;28.00;61.00;;;;;;4955010;28;20085;-82
2023/09/03 08:06:58;;;;;;;9.65;4.30;;;28.50;59.20;;;;;;4939063;28;20051;-83
2023/09/03 08:09:24;;;;;;;9.93;4.68;;;28.80;57.50;;;;;;4941536;29;20035;-84
2023/09/03 08:11:51;;;;;;;8.65;5.03;;;29.00;56.80;;;;;;4955652;28;20042;-82
2023/09/03 08:14:16;;;;;;;;;;;28.90;56.50;;;;;;4974798;28;20134;-82
2023/09/03 08:16:42;;;;;;;10.90;5.07;;;29.40;59.00;;;;;;4960231;28;19906;-84
2023/09/03 08:19:08;;;;;;;5.83;3.20;;;30.30;55.10;;;;;;4955372;28;20136;-83
2023/09/03 08:21:34;;;;;;;10.07;3.47;;;30.60;51.80;;;;;;4956220;28;20064;-83
2023/09/03 08:24:00;;;;;;;4.37;3.23;;;30.50;51.60;;;;;;4967008;28;20066;-83
2023/09/03 08:26:26;;;;;;;5.93;3.83;;;30.90;50.60;;;;;;4963856;28;20475;-81
2023/09/03 08:28:52;;;;;;;9.80;4.45;;;31.80;49.30;;;;;;4954975;28;20027;-83
2023/09/03 08:31:18;;;;;;;6.97;4.33;;;32.10;47.60;;;;;;4937709;29;20027;-86
2023/09/03 08:33:44;;;;;;;6.13;3.57;;;31.90;48.20;;;;;;4954825;28;20468;-84
2023/09/03 08:36:10;;;;;;;8.73;3.95;;;;;;;;;;4954604;28;20389;-83
2023/09/03 08:38:36;;;;;;;9.27;6.30;;;32.30;47.80;;;;;;4954233;28;20031;-83
2023/09/03 08:41:02;;;;;;;7.87;4.23;;;33.70;46.10;;;;;;4954370;28;20039;-82
2023/09/03 08:43:29;;;;;;;9.60;4.78;;;34.40;44.80;;;;;;4937077;29;20090;-83
2023/09/03 08:46:00;;;;;;;9.80;4.47;;;34.90;43.70;;;;;;4936973;28;20023;-83
2023/09/03 08:48:26;;;;;;;5.65;3.35;;;35.30;43.60;;;;;;4954816;28;20509;-81
2023/09/03 08:50:53;;;;;;;4.43;2.58;;;35.10;41.90;;;;;;4954860;28;20039;-84
2023/09/03 08:53:21;;;;;;;15.88;6.28;;;;;;;;;;4938699;29;20071;-82
2023/09/03 08:55:47;;;;;;;5.65;2.95;;;33.90;42.80;;;;;;4954859;28;20461;-84
2023/09/03 08:58:13;;;;;;;7.70;3.33;;;32.40;44.70;;;;;;4937939;29;20062;-83
2023/09/03 09:00:40;;;;;;;22.63;5.57;;;32.20;45.60;;;;;;4954884;28;20143;-84
2023/09/03 09:03:11;;;;;;;10.85;3.88;;;32.80;44.70;;;;;;4938298;29;20457;-83
2023/09/03 09:05:40;;;;;;;14.63;4.15;;;32.90;43.90;;;;;;4938133;29;20027;-83
2023/09/03 09:08:06;;;;;;;5.18;3.28;;;32.30;44.50;;;;;;4959903;28;20058;-84
2023/09/03 09:10:37;;;;;;;5.33;3.00;;;31.80;44.70;;;;;;4954944;28;20086;-83
2023/09/03 09:13:11;;;;;;;8.00;2.97;;;32.50;45.40;;;;;;4937589;29;20055;-83
2023/09/03 09:15:42;;;;;;;4.95;3.28;;;33.30;43.90;;;;;;4954139;28;20022;-83
2023/09/03 09:18:09;;;;;;;21.50;5.88;;;33.50;42.50;;;;;;4937531;29;20027;-82
2023/09/03 09:20:38;;;;;;;6.88;3.22;;;33.00;43.20;;;;;;4970231;28;20026;-82
2023/09/03 09:23:05;;;;;;;7.05;3.33;;;32.30;43.40;;;;;;4965758;28;20027;-83
2023/09/03 09:25:30;;;;;;;3.80;2.30;;;31.60;44.10;;;;;;4950377;28;20122;-83
2023/09/03 09:27:57;;;;;;;6.57;2.67;;;31.10;44.60;;;;;;4937652;29;20126;-83
2023/09/03 09:30:27;;;;;;;3.35;2.38;;;;;;;;;;4937369;29;20030;-83
2023/09/03 09:33:04;;;;;;;7.63;2.65;;;30.80;46.30;;;;;;4955574;28;20043;-82
2023/09/03 09:35:30;;;;;;;10.85;4.28;;;30.00;45.60;;;;;;4966673;28;20321;-84
2023/09/03 09:38:07;;;;;;;5.67;3.10;;;29.40;46.70;;;;;;4958982;28;20038;-83
2023/09/03 09:40:36;;;;;;;5.85;4.15;;;28.60;48.50;;;;;;4943867;29;20098;-83
2023/09/03 09:43:04;;;;;;;7.57;2.75;;;;;;;;;;4963536;28;20039;-83
2023/09/03 09:45:33;;;;;;;6.95;3.15;;;;;;;;;;4965851;28;20027;-83
2023/09/03 09:48:10;;;;;;;6.13;3.22;;;27.90;49.90;;;;;;4944127;28;20149;-84
2023/09/03 09:50:38;;;;;;;17.58;4.70;;;;;;;;;;4960747;28;20023;-84
2023/09/03 09:53:05;;;;;;;8.52;3.35;;;;;;;;;;4943309;29;20027;-83
2023/09/03 09:55:32;;;;;;;3.50;2.90;;;;;;;;;;4959561;28;20550;-82
2023/09/03 09:57:58;;;;;;;;;;;;;;;;;;4962344;28;20031;-83
2023/09/03 10:00:37;;;;;;;5.53;2.67;;;;;;;;;;4972619;28;20284;-84
2023/09/03 10:03:10;;;;;;;6.20;2.70;;;;;;;;;;4961545;28;20058;-83
2023/09/03 10:05:36;;;;;;;12.98;5.43;;;;;;;;;;4957866;28;20016;-83
2023/09/03 10:08:03;;;;;;;7.23;4.57;;;;;;;;;;4955661;28;20027;-83
2023/09/03 10:10:30;;;;;;;9.73;5.05;;;;;;;;;;4966243;28;20027;-84
2023/09/03 10:12:56;;;;;;;;;;;;;;;;;;4964012;28;20026;-82
2023/09/03 10:15:23;;;;;;;11.13;4.80;;;;;;;;;;4968426;28;19906;-82
2023/09/03 10:17:54;;;;;;;4.30;3.28;;;;;;;;;;4965056;28;20035;-82
2023/09/03 10:20:21;;;;;;;3.75;3.35;;;;;;;;;;4962493;28;20390;-84
2023/09/03 10:22:48;;;;;;;6.78;3.80;;;;;;;;;;4945003;29;20130;-83
2023/09/03 10:25:16;;;;;;;7.30;4.03;;;;;;;;;;4961563;28;20034;-82
2023/09/03 10:27:46;;;;;;;10.02;4.03;;;;;;;;;;4961098;28;20015;-81
2023/09/03 10:30:15;;;;;;;19.30;5.45;;;;;;;;;;4945138;29;20102;-82
2023/09/03 10:32:42;;;;;;;7.55;5.20;;;26.60;50.80;;;;;;4959647;28;20023;-83
2023/09/03 10:35:09;;;;;;;7.68;3.95;;;25.10;56.00;;;;;;4960964;28;20115;-84
2023/09/03 10:37:37;;;;;;;9.32;4.20;;;24.80;56.70;;;;;;4960098;28;20035;-82
2023/09/03 10:40:28;;;;;;;9.73;4.47;;;24.60;57.00;;;;;;4960951;28;20019;-84
2023/09/03 10:43:18;;;;;;;8.90;3.85;;;24.40;57.30;;;;;;4960470;28;20027;-82
2023/09/03 10:46:07;;;;;;;14.75;5.28;;;24.40;57.10;;;;;;4960373;28;20115;-82
2023/09/03 10:48:36;;;;;;;11.40;4.32;;;24.30;57.40;;;;;;4948028;28;20188;-83
2023/09/03 10:51:02;;;;;;;8.70;4.07;;;24.40;57.90;;;;;;4956726;28;20020;-81
2023/09/03 10:53:42;;;;;;;4.75;3.58;;;24.30;57.80;;;;;;4957477;28;20110;-82
2023/09/03 10:56:09;;;;;;;6.88;4.25;;;24.40;57.60;;;;;;4957851;28;20170;-83
2023/09/03 10:58:50;;;;;;;9.60;4.55;;;24.50;58.20;;;;;;4970452;28;20035;-85
2023/09/03 11:01:22;;;;;;;15.48;4.50;;;24.50;57.70;;;;;;4956390;28;20027;-82
2023/09/03 11:03:49;;;;;;;9.38;4.15;;;24.70;57.60;;;;;;4957388;28;20075;-84
2023/09/03 11:06:21;;;;;;;15.68;5.75;;;24.80;57.90;;;;;;4956899;28;20024;-84
2023/09/03 11:08:59;;;;;;;11.55;5.25;;;25.00;57.80;;;;;;4938862;28;20027;-83
2023/09/03 11:11:28;;;;;;;17.20;6.35;;;25.00;57.60;;;;;;4960368;28;20035;-84
2023/09/03 11:13:55;;;;;;;20.90;6.30;;;25.20;57.60;;;;;;4969823;28;20026;-85
2023/09/03 11:16:27;;;;;;;9.83;4.50;;;25.30;57.60;;;;;;4956335;28;20033;-85
2023/09/03 11:18:53;;;;;;;6.68;3.70;;;25.40;57.00;;;;;;4956790;28;20293;-84
2023/09/03 11:21:19;;;;;;;10.07;4.25;;;25.30;56.80;;;;;;4960915;28;20460;-83
2023/09/03 11:24:20;;;;;;;9.15;3.92;;;25.10;57.40;;;;;;4942164;28;20437;-82
2023/09/03 11:27:02;;;;;;;13.23;4.88;;;25.00;57.90;;;;;;4956676;28;20051;-83
2023/09/03 11:29:28;;;;;;;7.63;4.13;;;25.00;57.70;;;;;;4956467;28;20023;-82
2023/09/03 11:31:55;;;;;;;6.35;3.20;;;24.80;57.10;;;;;;4956885;28;20024;-83
2023/09/03 11:34:29;;;;;;;12.45;3.88;;;24.70;57.30;;;;;;4939449;29;20027;-85
2023/09/03 11:36:55;;;;;;;6.97;3.75;;;24.40;57.50;;;;;;4946883;28;20107;-83
2023/09/03 11:39:22;;;;;;;8.50;3.72;;;24.20;58.30;;;;;;4935715;28;20035;-84
2023/09/03 11:41:48;;;;;;;7.90;3.70;;;24.10;58.90;;;;;;4938563;29;20027;-85
2023/09/03 11:44:20;;;;;;;5.68;3.67;;;24.20;59.10;;;;;;4955499;28;20956;-87
2023/09/03 11:46:57;;;;;;;6.60;3.50;;;24.10;58.80;;;;;;4938504;29;20082;-83
2023/09/03 11:49:23;;;;;;;;;;;24.00;58.70;;;;;;4957287;28;20043;-82
2023/09/03 11:51:48;;;;;;;7.97;3.70;;;23.90;58.80;;;;;;4950470;29;19930;-83
2023/09/03 11:54:24;;;;;;;6.75;3.40;;;23.90;59.80;;;;;;4955668;28;20031;-82
2023/09/03 11:56:56;;;;;;;5.95;3.28;;;23.90;59.90;;;;;;4943119;28;20106;-83
2023/09/03 11:59:22;;;;;;;7.32;3.60;;;23.80;59.30;;;;;;4955789;28;20054;-85
2023/09/03 12:01:48;;;;;;;5.63;3.78;;;23.70;59.50;;;;;;4959335;28;20018;-85
2023/09/03 12:04:14;;;;;;;16.63;5.03;;;23.60;59.60;;;;;;4956775;28;20027;-84
2023/09/03 12:06:41;;;;;;;13.55;4.22;;;23.50;59.90;;;;;;4958692;28;20146;-83
2023/09/03 12:09:08;;;;;;;8.88;3.40;;;23.40;60.70;;;;;;4953383;29;20026;-82
2023/09/03 12:11:33;;;;;;;14.50;4.10;;;23.30;60.30;;;;;;4948991;29;20039;-82
2023/09/03 12:13:59;;;;;;;6.40;3.03;;;23.30;60.70;;;;;;4954189;29;20102;-84
2023/09/03 12:16:27;;;;;;;13.27;4.80;;;23.20;60.20;;;;;;4955003;28;20024;-85
2023/09/03 12:19:03;;;;;;;11.48;3.97;;;23.10;60.90;;;;;;4938199;28;20090;-84
2023/09/03 12:21:34;;;;;;;3.57;2.70;;;23.00;61.00;;;;;;4937921;29;20062;-82
2023/09/03 12:24:04;;;;;;;4.28;2.88;;;22.80;60.60;;;;;;4955123;28;20418;-83
2023/09/03 12:26:31;;;;;;;6.72;3.65;;;22.70;60.70;;;;;;4964242;28;20023;-82
2023/09/03 12:28:58;;;;;;;9.63;3.95;;;22.60;61.30;;;;;;4954973;28;20027;-84
2023/09/03 12:31:40;;;;;;;10.80;4.50;;;22.50;61.60;;;;;;4956705;28;20070;-82
2023/09/03 12:34:08;;;;;;;15.13;4.32;;;22.50;61.70;;;;;;4941760;28;20055;-83
2023/09/03 12:36:33;;;;;;;;;;;22.50;61.50;;;;;;4955504;28;20070;-83
2023/09/03 12:39:03;;;;;;;5.65;2.55;;;22.60;61.40;;;;;;4967873;28;19918;-84
2023/09/03 12:41:34;;;;;;;5.32;3.40;;;22.60;60.90;;;;;;4941775;28;20027;-83
2023/09/03 12:44:10;;;;;;;5.55;3.63;;;22.60;61.60;;;;;;4938096;29;20035;-84
2023/09/03 12:46:36;;;;;;;4.72;3.50;;;22.70;61.30;;;;;;4930692;28;20037;-84
2023/09/03 12:49:03;;;;;;;8.57;3.80;;;22.90;61.30;;;;;;4974617;28;20033;-83
2023/09/03 12:51:29;;;;;;;;;;;23.00;60.30;;;;;;4956423;28;20110;-82
2023/09/03 12:53:55;;;;;;;8.32;3.67;;;23.00;60.20;;;;;;4954459;28;19938;-82